Aérodrome :
LOGIN :

S'inscrire | Disclaimer

   EN    FR    IT 

 










Légende :    VFR   VFR Marginal   IFR   IFR Intensif   IFR Très Intensif
Visi : 
Plafond : 
>= 8 km
>= 3000ft
5 à 8 km
1000 à 3000 ft
1500m à 5 km
500 à 1000 ft
800 à 1500m
200 à 500 ft
< 800m
< 200 ft
Symboles :   Orages  Brouillard  Fortes neiges  Fortes précipitations  Vent > 20 kt
SIGMETs :   Divers  Orages  Givrage  Turbulence  Onde Orograph.  Cendres Volcan.






- Altitude de l'aérodrome : 412 ft
- Code IATA : ORE


LFOJ - Orleans

DERNIER METAR :
  • 052330Z AUTO 36009KT CAVOK 02/01 Q1040

METARs EXPIRÉS :
  • 052300Z AUTO 01008KT CAVOK 02/01 Q1040
  • 052230Z AUTO 35005KT CAVOK 01/M00 Q1040
  • 052200Z AUTO 36005KT CAVOK 02/00 Q1040
  • 052130Z AUTO 35008KT CAVOK 02/00 Q1040 NOSIG
  • 052100Z AUTO 36006KT CAVOK 03/01 Q1040 BECMG 03016KT

TAF TAF LFOJ
Valide du 05 à 21h jusqu'au 06 à 21h UTC


052000Z 0521/0621 01010KT CAVOK TX07/0614Z TN00/0606Z
PROB30
TEMPO 0605/0608 BKN004
BECMG 0608/0610 SCT005 BKN013



MET'MAP, la Météo Aéronautique d'un coup d'oeil ! - Copyright ORBIFLY Décembre 2007 - Disclaimer

ORBIFLY MET'MAP TEAM :

Programmation & Développement : Alexandra Zaïnal
Sur une idée originale de : Baudouin d'Aumeries
Soutien technique & logistique : Manuel Goepfert
Assistance : Marc-Olivier Méhu




SOURCES & CREDITS :

   NOAA